sensor_id;sensor_type;location;lat;lon;timestamp;temperature;humidity
23497;DHT22;11925;48.122;11.560;2022-11-11T14:09:53;13.00;99.90
23497;DHT22;11925;48.122;11.560;2022-11-11T14:12:41;13.00;99.90
23497;DHT22;11925;48.122;11.560;2022-11-11T14:15:38;13.00;99.90
23497;DHT22;11925;48.122;11.560;2022-11-11T14:18:37;13.00;99.90
23497;DHT22;11925;48.122;11.560;2022-11-11T14:22:00;13.00;99.90
23497;DHT22;11925;48.122;11.560;2022-11-11T14:24:47;13.00;99.90
23497;DHT22;11925;48.122;11.560;2022-11-11T14:27:34;13.00;99.90
23497;DHT22;11925;48.122;11.560;2022-11-11T14:30:30;13.00;99.90
23497;DHT22;11925;48.122;11.560;2022-11-11T14:33:28;13.00;99.90
23497;DHT22;11925;48.122;11.560;2022-11-11T14:36:23;13.00;99.90
23497;DHT22;11925;48.122;11.560;2022-11-11T14:39:23;13.10;99.90
23497;DHT22;11925;48.122;11.560;2022-11-11T14:42:44;13.00;99.90
23497;DHT22;11925;48.122;11.560;2022-11-11T14:46:03;13.10;99.90
23497;DHT22;11925;48.122;11.560;2022-11-11T14:48:58;13.00;99.90
23497;DHT22;11925;48.122;11.560;2022-11-11T14:51:54;13.10;99.90
23497;DHT22;11925;48.122;11.560;2022-11-11T14:58:10;13.10;99.90
23497;DHT22;11925;48.122;11.560;2022-11-11T15:01:02;13.10;99.90
23497;DHT22;11925;48.122;11.560;2022-11-11T15:03:51;13.10;99.90
23497;DHT22;11925;48.122;11.560;2022-11-11T15:06:42;13.10;99.90
23497;DHT22;11925;48.122;11.560;2022-11-11T15:12:55;13.10;99.90
23497;DHT22;11925;48.122;11.560;2022-11-11T15:15:52;13.10;99.90
23497;DHT22;11925;48.122;11.560;2022-11-11T15:18:51;13.10;99.90
23497;DHT22;11925;48.122;11.560;2022-11-11T15:21:49;13.10;99.90
23497;DHT22;11925;48.122;11.560;2022-11-11T15:24:44;13.10;99.90
23497;DHT22;11925;48.122;11.560;2022-11-11T15:27:39;13.10;99.90
23497;DHT22;11925;48.122;11.560;2022-11-11T15:30:44;13.10;99.90
23497;DHT22;11925;48.122;11.560;2022-11-11T15:33:44;13.10;99.90
23497;DHT22;11925;48.122;11.560;2022-11-11T15:36:44;13.10;99.90
23497;DHT22;11925;48.122;11.560;2022-11-11T15:39:38;13.10;99.90
23497;DHT22;11925;48.122;11.560;2022-11-11T15:42:29;13.10;99.90
23497;DHT22;11925;48.122;11.560;2022-11-11T15:45:22;13.20;99.90
23497;DHT22;11925;48.122;11.560;2022-11-11T15:48:19;13.10;99.90
23497;DHT22;11925;48.122;11.560;2022-11-11T15:51:21;13.10;99.90
23497;DHT22;11925;48.122;11.560;2022-11-11T15:54:18;13.10;99.90
23497;DHT22;11925;48.122;11.560;2022-11-11T15:57:22;13.20;99.90
23497;DHT22;11925;48.122;11.560;2022-11-11T16:00:25;13.20;99.90
23497;DHT22;11925;48.122;11.560;2022-11-11T16:03:15;13.20;99.90
23497;DHT22;11925;48.122;11.560;2022-11-11T16:06:08;13.20;99.90
23497;DHT22;11925;48.122;11.560;2022-11-11T16:08:56;13.20;99.90
23497;DHT22;11925;48.122;11.560;2022-11-11T16:11:43;13.20;99.90
23497;DHT22;11925;48.122;11.560;2022-11-11T16:14:33;13.20;99.90
23497;DHT22;11925;48.122;11.560;2022-11-11T16:17:26;13.20;99.90
23497;DHT22;11925;48.122;11.560;2022-11-11T16:20:15;13.20;99.90
23497;DHT22;11925;48.122;11.560;2022-11-11T16:23:06;13.20;99.90
23497;DHT22;11925;48.122;11.560;2022-11-11T16:25:56;13.20;99.90
23497;DHT22;11925;48.122;11.560;2022-11-11T16:28:45;13.10;99.90
23497;DHT22;11925;48.122;11.560;2022-11-11T16:31:37;13.20;99.90
23497;DHT22;11925;48.122;11.560;2022-11-11T16:34:35;13.20;99.90
23497;DHT22;11925;48.122;11.560;2022-11-11T16:37:23;13.20;99.90
23497;DHT22;11925;48.122;11.560;2022-11-11T16:40:33;13.20;99.90
23497;DHT22;11925;48.122;11.560;2022-11-11T16:43:22;13.20;99.90
23497;DHT22;11925;48.122;11.560;2022-11-11T16:46:13;13.20;99.90
23497;DHT22;11925;48.122;11.560;2022-11-11T16:49:19;13.10;99.90
23497;DHT22;11925;48.122;11.560;2022-11-11T16:52:09;13.10;99.90
23497;DHT22;11925;48.122;11.560;2022-11-11T16:54:59;13.10;99.90
23497;DHT22;11925;48.122;11.560;2022-11-11T16:57:48;13.00;99.90
23497;DHT22;11925;48.122;11.560;2022-11-11T17:00:36;13.00;99.90
23497;DHT22;11925;48.122;11.560;2022-11-11T17:03:24;13.00;99.90
23497;DHT22;11925;48.122;11.560;2022-11-11T17:06:12;13.00;99.90
23497;DHT22;11925;48.122;11.560;2022-11-11T17:08:59;12.90;99.90
23497;DHT22;11925;48.122;11.560;2022-11-11T17:11:46;13.00;99.90
23497;DHT22;11925;48.122;11.560;2022-11-11T17:14:36;12.90;99.90
23497;DHT22;11925;48.122;11.560;2022-11-11T17:17:24;12.90;99.90
23497;DHT22;11925;48.122;11.560;2022-11-11T17:20:15;12.90;99.90
23497;DHT22;11925;48.122;11.560;2022-11-11T17:23:03;12.90;99.90
23497;DHT22;11925;48.122;11.560;2022-11-11T17:25:53;12.90;99.90
23497;DHT22;11925;48.122;11.560;2022-11-11T17:28:40;12.90;99.90
23497;DHT22;11925;48.122;11.560;2022-11-11T17:31:28;12.90;99.90
23497;DHT22;11925;48.122;11.560;2022-11-11T17:34:15;12.80;99.90
23497;DHT22;11925;48.122;11.560;2022-11-11T17:37:02;12.90;99.90
23497;DHT22;11925;48.122;11.560;2022-11-11T17:39:49;12.80;99.90
23497;DHT22;11925;48.122;11.560;2022-11-11T17:42:36;12.80;99.90
23497;DHT22;11925;48.122;11.560;2022-11-11T17:45:23;12.80;99.90
23497;DHT22;11925;48.122;11.560;2022-11-11T17:48:13;12.80;99.90
23497;DHT22;11925;48.122;11.560;2022-11-11T17:51:02;12.80;99.90
23497;DHT22;11925;48.122;11.560;2022-11-11T17:53:50;12.70;99.90
23497;DHT22;11925;48.122;11.560;2022-11-11T17:56:37;12.70;99.90
23497;DHT22;11925;48.122;11.560;2022-11-11T17:59:24;12.70;99.90
23497;DHT22;11925;48.122;11.560;2022-11-11T18:02:11;12.70;99.90
23497;DHT22;11925;48.122;11.560;2022-11-11T18:05:00;12.70;99.90
23497;DHT22;11925;48.122;11.560;2022-11-11T18:07:46;12.70;99.90
23497;DHT22;11925;48.122;11.560;2022-11-11T18:10:33;12.70;99.90
23497;DHT22;11925;48.122;11.560;2022-11-11T18:13:20;12.80;99.90
23497;DHT22;11925;48.122;11.560;2022-11-11T18:16:13;12.90;99.90
23497;DHT22;11925;48.122;11.560;2022-11-11T18:19:00;12.80;99.90
23497;DHT22;11925;48.122;11.560;2022-11-11T18:21:48;12.80;99.90
23497;DHT22;11925;48.122;11.560;2022-11-11T18:24:35;12.80;99.90
23497;DHT22;11925;48.122;11.560;2022-11-11T18:27:22;12.70;99.90
23497;DHT22;11925;48.122;11.560;2022-11-11T18:30:09;12.70;99.90
23497;DHT22;11925;48.122;11.560;2022-11-11T18:32:56;12.60;99.90
23497;DHT22;11925;48.122;11.560;2022-11-11T18:35:43;12.70;99.90
23497;DHT22;11925;48.122;11.560;2022-11-11T18:38:32;12.70;99.90
23497;DHT22;11925;48.122;11.560;2022-11-11T18:41:39;12.70;99.90
23497;DHT22;11925;48.122;11.560;2022-11-11T18:53:59;12.70;99.90
23497;DHT22;11925;48.122;11.560;2022-11-11T18:57:48;12.60;99.90
23497;DHT22;11925;48.122;11.560;2022-11-11T19:06:20;12.50;99.90
23497;DHT22;11925;48.122;11.560;2022-11-11T19:13:33;12.30;99.90
23497;DHT22;11925;48.122;11.560;2022-11-11T19:16:40;12.60;99.90
23497;DHT22;11925;48.122;11.560;2022-11-11T19:19:27;12.60;99.90
23497;DHT22;11925;48.122;11.560;2022-11-11T19:22:14;12.60;99.90
23497;DHT22;11925;48.122;11.560;2022-11-11T19:25:03;12.60;99.90
23497;DHT22;11925;48.122;11.560;2022-11-11T19:27:51;12.60;99.90
23497;DHT22;11925;48.122;11.560;2022-11-11T19:30:38;12.60;99.90
23497;DHT22;11925;48.122;11.560;2022-11-11T19:33:25;12.50;99.90
23497;DHT22;11925;48.122;11.560;2022-11-11T19:36:15;12.60;99.90
23497;DHT22;11925;48.122;11.560;2022-11-11T19:39:02;12.50;99.90
23497;DHT22;11925;48.122;11.560;2022-11-11T19:41:51;12.60;99.90
23497;DHT22;11925;48.122;11.560;2022-11-11T19:44:39;12.50;99.90
23497;DHT22;11925;48.122;11.560;2022-11-11T19:47:25;12.50;99.90
23497;DHT22;11925;48.122;11.560;2022-11-11T19:50:13;12.50;99.90
23497;DHT22;11925;48.122;11.560;2022-11-11T19:53:00;12.40;99.90
23497;DHT22;11925;48.122;11.560;2022-11-11T19:55:56;12.50;99.90
23497;DHT22;11925;48.122;11.560;2022-11-11T19:58:45;12.40;99.90
23497;DHT22;11925;48.122;11.560;2022-11-11T20:01:33;12.40;99.90
23497;DHT22;11925;48.122;11.560;2022-11-11T20:04:22;12.40;99.90
23497;DHT22;11925;48.122;11.560;2022-11-11T20:07:10;12.40;99.90
23497;DHT22;11925;48.122;11.560;2022-11-11T20:09:58;12.40;99.90
23497;DHT22;11925;48.122;11.560;2022-11-11T20:12:45;12.40;99.90
23497;DHT22;11925;48.122;11.560;2022-11-11T20:15:33;12.30;99.90
23497;DHT22;11925;48.122;11.560;2022-11-11T20:18:21;12.30;99.90
23497;DHT22;11925;48.122;11.560;2022-11-11T20:21:11;12.30;99.90
23497;DHT22;11925;48.122;11.560;2022-11-11T20:23:58;12.30;99.90
23497;DHT22;11925;48.122;11.560;2022-11-11T20:26:45;12.30;99.90
23497;DHT22;11925;48.122;11.560;2022-11-11T20:29:37;12.30;99.90
23497;DHT22;11925;48.122;11.560;2022-11-11T20:32:25;12.30;99.90
23497;DHT22;11925;48.122;11.560;2022-11-11T20:35:12;12.30;99.90
23497;DHT22;11925;48.122;11.560;2022-11-11T20:37:59;12.30;99.90
23497;DHT22;11925;48.122;11.560;2022-11-11T20:40:46;12.30;99.90
23497;DHT22;11925;48.122;11.560;2022-11-11T20:43:34;12.30;99.90
23497;DHT22;11925;48.122;11.560;2022-11-11T20:46:21;12.30;99.90
23497;DHT22;11925;48.122;11.560;2022-11-11T20:49:09;12.30;99.90
23497;DHT22;11925;48.122;11.560;2022-11-11T20:51:56;12.30;99.90
23497;DHT22;11925;48.122;11.560;2022-11-11T20:54:43;12.30;99.90
23497;DHT22;11925;48.122;11.560;2022-11-11T20:57:31;12.30;99.90
23497;DHT22;11925;48.122;11.560;2022-11-11T21:00:18;12.30;99.90
23497;DHT22;11925;48.122;11.560;2022-11-11T21:03:05;12.30;99.90
23497;DHT22;11925;48.122;11.560;2022-11-11T21:05:59;12.30;99.90
23497;DHT22;11925;48.122;11.560;2022-11-11T21:08:46;12.30;99.90
23497;DHT22;11925;48.122;11.560;2022-11-11T21:11:33;12.30;99.90
23497;DHT22;11925;48.122;11.560;2022-11-11T21:14:20;12.30;99.90
23497;DHT22;11925;48.122;11.560;2022-11-11T21:17:07;12.30;99.90
23497;DHT22;11925;48.122;11.560;2022-11-11T21:19:54;12.20;99.90
23497;DHT22;11925;48.122;11.560;2022-11-11T21:22:44;12.20;99.90
23497;DHT22;11925;48.122;11.560;2022-11-11T21:25:31;12.20;99.90
23497;DHT22;11925;48.122;11.560;2022-11-11T21:28:18;12.20;99.90
23497;DHT22;11925;48.122;11.560;2022-11-11T21:31:07;12.20;99.90
23497;DHT22;11925;48.122;11.560;2022-11-11T21:33:56;12.20;99.90
23497;DHT22;11925;48.122;11.560;2022-11-11T21:36:43;12.20;99.90
23497;DHT22;11925;48.122;11.560;2022-11-11T21:39:31;12.20;99.90
23497;DHT22;11925;48.122;11.560;2022-11-11T21:42:18;12.10;99.90
23497;DHT22;11925;48.122;11.560;2022-11-11T21:45:05;12.10;99.90
23497;DHT22;11925;48.122;11.560;2022-11-11T21:47:52;12.10;99.90
23497;DHT22;11925;48.122;11.560;2022-11-11T21:50:39;12.10;99.90
23497;DHT22;11925;48.122;11.560;2022-11-11T21:53:26;12.10;99.90
23497;DHT22;11925;48.122;11.560;2022-11-11T21:56:14;12.10;99.90
23497;DHT22;11925;48.122;11.560;2022-11-11T21:59:03;12.10;99.90
23497;DHT22;11925;48.122;11.560;2022-11-11T22:01:50;12.10;99.90
23497;DHT22;11925;48.122;11.560;2022-11-11T22:04:37;12.10;99.90
23497;DHT22;11925;48.122;11.560;2022-11-11T22:07:24;12.10;99.90
23497;DHT22;11925;48.122;11.560;2022-11-11T22:10:11;12.10;99.90
23497;DHT22;11925;48.122;11.560;2022-11-11T22:13:00;12.10;99.90
23497;DHT22;11925;48.122;11.560;2022-11-11T22:15:47;12.10;99.90
23497;DHT22;11925;48.122;11.560;2022-11-11T22:18:34;12.00;99.90
23497;DHT22;11925;48.122;11.560;2022-11-11T22:21:29;12.00;99.90
23497;DHT22;11925;48.122;11.560;2022-11-11T22:24:19;12.00;99.90
23497;DHT22;11925;48.122;11.560;2022-11-11T22:27:06;12.00;99.90
23497;DHT22;11925;48.122;11.560;2022-11-11T22:29:54;12.00;99.90
23497;DHT22;11925;48.122;11.560;2022-11-11T22:32:41;12.00;99.90
23497;DHT22;11925;48.122;11.560;2022-11-11T22:35:30;12.00;99.90
23497;DHT22;11925;48.122;11.560;2022-11-11T22:38:16;12.00;99.90
23497;DHT22;11925;48.122;11.560;2022-11-11T22:41:05;12.00;99.90
23497;DHT22;11925;48.122;11.560;2022-11-11T22:43:52;12.00;99.90
23497;DHT22;11925;48.122;11.560;2022-11-11T22:46:48;12.40;99.90
23497;DHT22;11925;48.122;11.560;2022-11-11T22:49:34;12.50;99.90
23497;DHT22;11925;48.122;11.560;2022-11-11T22:52:21;12.60;99.60
23497;DHT22;11925;48.122;11.560;2022-11-11T22:55:08;12.60;99.60
23497;DHT22;11925;48.122;11.560;2022-11-11T22:57:56;12.60;99.40
23497;DHT22;11925;48.122;11.560;2022-11-11T23:00:43;12.60;99.10
23497;DHT22;11925;48.122;11.560;2022-11-11T23:03:33;12.70;99.10
23497;DHT22;11925;48.122;11.560;2022-11-11T23:06:23;12.70;98.90
23497;DHT22;11925;48.122;11.560;2022-11-11T23:09:10;12.60;98.80
23497;DHT22;11925;48.122;11.560;2022-11-11T23:11:57;12.70;98.70
23497;DHT22;11925;48.122;11.560;2022-11-11T23:14:44;12.70;98.60
23497;DHT22;11925;48.122;11.560;2022-11-11T23:17:31;12.70;98.60
23497;DHT22;11925;48.122;11.560;2022-11-11T23:20:19;12.70;98.30
23497;DHT22;11925;48.122;11.560;2022-11-11T23:23:06;12.70;98.30
23497;DHT22;11925;48.122;11.560;2022-11-11T23:25:53;12.80;98.30
23497;DHT22;11925;48.122;11.560;2022-11-11T23:28:41;12.90;98.10
23497;DHT22;11925;48.122;11.560;2022-11-11T23:31:30;12.90;97.80
23497;DHT22;11925;48.122;11.560;2022-11-11T23:34:17;12.80;97.90
23497;DHT22;11925;48.122;11.560;2022-11-11T23:37:05;12.70;97.80
23497;DHT22;11925;48.122;11.560;2022-11-11T23:39:52;12.70;97.70
23497;DHT22;11925;48.122;11.560;2022-11-11T23:42:39;12.70;97.70
23497;DHT22;11925;48.122;11.560;2022-11-11T23:45:26;12.60;97.60
23497;DHT22;11925;48.122;11.560;2022-11-11T23:48:13;12.60;97.40
23497;DHT22;11925;48.122;11.560;2022-11-11T23:51:01;12.60;97.40
23497;DHT22;11925;48.122;11.560;2022-11-11T23:53:49;12.50;97.40
23497;DHT22;11925;48.122;11.560;2022-11-11T23:56:36;12.60;97.30
23497;DHT22;11925;48.122;11.560;2022-11-11T23:59:24;12.60;96.90
